Time;durP1;ratioP1;P1;durP2;ratioP2;P2;SDS_P1;SDS_P2;PMS_P1;PMS_P2;Temp;Humidity;BMP_temperature;BMP_pressure;BME280_temperature;BME280_humidity;BME280_pressure;Samples;Min_cycle;Max_cycle;Signal;HPM_P1;HPM_P2
2022/03/19 00:00:23;;;;;;;21.65;3.50;;;;;;;;;;6244224;23;20478;-83
2022/03/19 00:02:50;;;;;;;17.35;3.65;;;;;;;;;;6221952;23;20028;-85
2022/03/19 00:05:16;;;;;;;20.83;4.05;;;;;;;;;;6192560;23;20440;-84
2022/03/19 00:07:42;;;;;;;27.42;2.97;;;;;;;;;;6244671;23;20020;-83
2022/03/19 00:10:10;;;;;;;18.98;3.50;;;;;;;;;;6244092;23;20022;-83
2022/03/19 00:12:38;;;;;;;16.42;2.80;;;;;;;;;;6192977;23;20452;-84
2022/03/19 00:15:04;;;;;;;22.02;3.67;;;;;;;;;;6244570;23;20020;-84
2022/03/19 00:17:31;;;;;;;26.00;4.28;;;;;;;;;;6244531;23;20023;-84
2022/03/19 00:19:57;;;;;;;19.45;3.22;;;;;;;;;;6167283;23;20028;-83
2022/03/19 00:22:23;;;;;;;19.80;3.05;;;;;;;;;;6193262;23;20018;-83
2022/03/19 00:24:49;;;;;;;18.00;3.60;;;;;;;;;;6218744;23;20411;-84
2022/03/19 00:27:15;;;;;;;24.67;3.30;;;;;;;;;;6246251;23;20020;-83
2022/03/19 00:29:41;;;;;;;17.67;3.05;;;;;;;;;;6246058;23;20017;-83
2022/03/19 00:32:07;;;;;;;18.10;3.20;;;;;;;;;;6221321;23;20016;-83
2022/03/19 00:34:34;;;;;;;24.30;4.05;;;;;;;;;;6248470;23;20455;-83
2022/03/19 00:37:00;;;;;;;19.40;3.55;;;;;;;;;;6194546;23;20435;-84
2022/03/19 00:39:26;;;;;;;20.85;3.33;;;;;;;;;;6245287;23;20020;-83
2022/03/19 00:41:53;;;;;;;19.55;3.35;;;;;;;;;;6245633;23;20456;-83
2022/03/19 00:44:22;;;;;;;19.67;3.38;;;;;;;;;;6245950;23;20020;-84
2022/03/19 00:46:49;;;;;;;16.02;3.28;;;;;;;;;;6246368;23;20017;-84
2022/03/19 00:49:15;;;;;;;28.13;4.90;;;;;;;;;;6245653;23;20024;-84
2022/03/19 00:51:41;;;;;;;20.50;3.40;;;;;;;;;;6245285;23;20012;-84
2022/03/19 00:54:09;;;;;;;17.52;3.60;;;;;;;;;;6219776;23;20020;-84
2022/03/19 00:56:39;;;;;;;23.02;4.30;;;;;;;;;;6218923;23;20038;-84
2022/03/19 00:59:06;;;;;;;29.98;5.68;;;;;;;;;;6246610;23;20020;-84
2022/03/19 01:01:34;;;;;;;21.17;4.18;;;;;;;;;;6219110;23;20016;-84
2022/03/19 01:04:00;;;;;;;17.48;3.25;;;;;;;;;;6247221;22;20016;-86
2022/03/19 01:06:27;;;;;;;22.75;3.58;;;;;;;;;;6245610;23;20354;-84
2022/03/19 01:08:53;;;;;;;20.13;3.83;;;;;;;;;;6246351;23;20031;-84
2022/03/19 01:11:23;;;;;;;21.83;4.15;;;;;;;;;;6245396;23;20122;-84
2022/03/19 01:13:58;;;;;;;26.13;4.25;;;;;;;;;;6246636;23;20031;-84
2022/03/19 01:16:27;;;;;;;25.70;4.00;;;;;;;;;;6220156;23;20023;-85
2022/03/19 01:18:56;;;;;;;21.50;4.45;;;;;;;;;;6219915;23;20020;-83
2022/03/19 01:21:22;;;;;;;21.52;4.38;;;;;;;;;;6219329;23;20066;-85
2022/03/19 01:23:48;;;;;;;30.17;5.55;;;;;;;;;;6193358;23;20063;-84
2022/03/19 01:26:14;;;;;;;18.08;4.30;;;;;;;;;;6246043;23;20023;-84
2022/03/19 01:28:41;;;;;;;25.25;4.50;;;;;;;;;;6193747;23;20404;-83
2022/03/19 01:31:15;;;;;;;25.70;4.93;;;;;;;;;;6193077;23;20023;-84
2022/03/19 01:33:41;;;;;;;20.95;4.07;;;;;;;;;;6245396;23;20487;-82
2022/03/19 01:36:07;;;;;;;24.33;5.30;;;;;;;;;;6245315;23;20044;-84
2022/03/19 01:38:33;;;;;;;28.63;4.40;;;;;;;;;;6245963;23;20095;-85
2022/03/19 01:41:00;;;;;;;20.35;3.55;;;;;;;;;;6245127;23;20428;-85
2022/03/19 01:43:26;;;;;;;18.63;4.22;;;;;;;;;;6246346;23;20016;-83
2022/03/19 01:45:52;;;;;;;15.93;3.70;;;;;;;;;;6243758;23;20020;-84
2022/03/19 01:48:19;;;;;;;19.17;4.50;;;;;;;;;;6219181;23;20024;-84
2022/03/19 01:50:45;;;;;;;24.50;4.30;;;;;;;;;;6220429;23;20016;-84
2022/03/19 01:53:11;;;;;;;23.80;5.30;;;;;;;;;;6246749;23;20020;-84
2022/03/19 01:55:38;;;;;;;29.02;5.10;;;;;;;;;;6245797;23;20016;-84
2022/03/19 01:58:04;;;;;;;25.60;4.90;;;;;;;;;;6193992;23;20071;-83
2022/03/19 02:00:30;;;;;;;16.60;4.38;;;;;;;;;;6245346;23;20347;-84
2022/03/19 02:02:57;;;;;;;24.15;5.22;;;;;;;;;;6244925;22;20095;-85
2022/03/19 02:05:24;;;;;;;21.17;4.88;;;;;;;;;;6245588;23;20020;-84
2022/03/19 02:07:51;;;;;;;26.23;5.18;;;;;;;;;;6217360;23;20020;-83
2022/03/19 02:10:18;;;;;;;28.20;5.13;;;;;;;;;;6219015;23;20099;-84
2022/03/19 02:12:45;;;;;;;18.60;4.85;;;;;;;;;;6243749;23;20040;-84
2022/03/19 02:15:11;;;;;;;26.85;5.10;;;;;;;;;;6245376;23;20023;-84
2022/03/19 02:17:37;;;;;;;22.73;6.22;;;;;;;;;;6244684;23;20020;-84
2022/03/19 02:20:04;;;;;;;21.73;4.75;;;;;;;;;;6246084;23;20027;-83
2022/03/19 02:22:30;;;;;;;22.05;5.32;;;;;;;;;;6245130;23;20024;-85
2022/03/19 02:27:42;;;;;;;22.02;5.38;;;;;;;;;;6245649;23;20024;-84
2022/03/19 02:30:10;;;;;;;26.20;5.28;;;;;;;;;;6244480;23;20024;-83
2022/03/19 02:32:36;;;;;;;23.70;6.00;;;;;;;;;;6245020;23;20031;-84
2022/03/19 02:35:03;;;;;;;27.33;5.60;;;;;;;;;;6215744;23;20046;-83
2022/03/19 02:37:39;;;;;;;18.92;5.55;;;;;;;;;;6217743;23;20087;-84
2022/03/19 02:40:06;;;;;;;22.90;5.90;;;;;;;;;;6245065;23;20020;-85
2022/03/19 02:42:32;;;;;;;25.38;5.60;;;;;;;;;;6244590;23;20103;-84
2022/03/19 02:44:58;;;;;;;21.83;5.75;;;;;;;;;;6217352;23;20101;-83
2022/03/19 02:47:24;;;;;;;22.15;6.20;;;;;;;;;;6217294;23;20043;-83
2022/03/19 02:49:50;;;;;;;25.73;6.20;;;;;;;;;;6219070;23;20050;-84
2022/03/19 02:52:17;;;;;;;27.25;6.40;;;;;;;;;;6244241;23;20066;-84
2022/03/19 02:54:44;;;;;;;26.63;7.05;;;;;;;;;;6245559;23;20024;-84
2022/03/19 02:57:10;;;;;;;32.90;7.65;;;;;;;;;;6244261;23;20062;-84
2022/03/19 02:59:40;;;;;;;24.55;7.05;;;;;;;;;;6243534;23;20020;-84
2022/03/19 03:02:07;;;;;;;26.80;6.38;;;;;;;;;;6243140;23;20016;-82
2022/03/19 03:04:34;;;;;;;29.55;7.70;;;;;;;;;;6243225;22;20020;-82
2022/03/19 03:07:01;;;;;;;34.40;7.60;;;;;;;;;;6195188;23;20092;-82
2022/03/19 03:09:28;;;;;;;23.63;7.35;;;;;;;;;;6247518;23;20048;-81
2022/03/19 03:11:56;;;;;;;26.13;7.93;;;;;;;;;;6221755;23;20020;-83
2022/03/19 03:14:22;;;;;;;30.45;9.32;;;;;;;;;;6251001;23;20058;-85
2022/03/19 03:16:49;;;;;;;37.10;9.02;;;;;;;;;;6251995;23;20016;-81
2022/03/19 03:19:16;;;;;;;26.65;8.40;;;;;;;;;;6250864;23;20032;-81
2022/03/19 03:21:43;;;;;;;28.50;9.10;;;;;;;;;;6220436;23;20024;-82
2022/03/19 03:24:09;;;;;;;25.58;9.23;;;;;;;;;;6217829;23;20026;-82
2022/03/19 03:26:36;;;;;;;39.17;9.82;;;;;;;;;;6191549;23;20020;-82
2022/03/19 03:29:03;;;;;;;27.58;8.75;;;;;;;;;;6191271;23;20064;-82
2022/03/19 03:31:29;;;;;;;34.28;9.73;;;;;;;;;;6241040;23;20020;-82
2022/03/19 03:33:57;;;;;;;34.85;11.05;;;;;;;;;;6218193;23;20075;-82
2022/03/19 03:36:24;;;;;;;28.67;10.30;;;;;;;;;;6242502;23;20027;-83
2022/03/19 03:38:50;;;;;;;30.25;9.75;;;;;;;;;;6245235;23;20012;-83
2022/03/19 03:41:16;;;;;;;27.27;11.27;;;;;;;;;;6216345;23;20146;-83
2022/03/19 03:43:42;;;;;;;38.67;11.25;;;;;;;;;;6217054;23;20020;-82
2022/03/19 03:46:08;;;;;;;29.23;10.85;;;;;;;;;;6243526;23;20016;-83
2022/03/19 03:48:36;;;;;;;32.00;10.57;;;;;;;;;;6217555;23;20020;-84
2022/03/19 03:51:02;;;;;;;46.40;12.15;;;;;;;;;;6217613;23;20031;-83
2022/03/19 03:53:29;;;;;;;33.95;11.98;;;;;;;;;;6243385;23;20055;-82
2022/03/19 03:55:55;;;;;;;37.00;12.38;;;;;;;;;;6245697;23;20016;-83
2022/03/19 03:58:21;;;;;;;33.92;12.57;;;;;;;;;;6167926;23;20020;-83
2022/03/19 04:00:48;;;;;;;24.17;12.07;;;;;;;;;;6169649;23;20016;-83
2022/03/19 04:03:14;;;;;;;34.10;12.48;;;;;;;;;;6245649;23;20013;-83
2022/03/19 04:05:40;;;;;;;30.63;11.57;;;;;;;;;;6246381;23;20058;-83
2022/03/19 04:08:06;;;;;;;36.35;12.98;;;;;;;;;;6219323;23;20020;-83
2022/03/19 04:10:32;;;;;;;35.75;13.15;;;;;;;;;;6244262;23;20384;-83
2022/03/19 04:12:59;;;;;;;33.42;13.60;;;;;;;;;;6245381;23;20017;-82
2022/03/19 04:15:25;;;;;;;39.92;14.60;;;;;;;;;;6244998;23;20505;-83
2022/03/19 04:17:51;;;;;;;30.77;13.50;;;;;;;;;;6245988;23;20020;-83
2022/03/19 04:20:18;;;;;;;33.60;14.35;;;;;;;;;;6244256;23;20016;-83
2022/03/19 04:22:45;;;;;;;41.72;14.70;;;;;;;;;;6218400;23;20022;-82
2022/03/19 04:25:15;;;;;;;36.72;14.07;;;;;;;;;;6192791;23;20563;-83
2022/03/19 04:27:42;;;;;;;29.90;13.90;;;;;;;;;;6219043;23;20448;-84
2022/03/19 04:30:12;;;;;;;35.05;14.95;;;;;;;;;;6218181;23;20072;-83
2022/03/19 04:32:42;;;;;;;35.35;15.30;;;;;;;;;;6245021;23;20475;-83
2022/03/19 04:37:55;;;;;;;39.47;15.45;;;;;;;;;;6246364;23;20099;-83
2022/03/19 04:40:21;;;;;;;36.83;15.68;;;;;;;;;;6246520;23;20034;-83
2022/03/19 04:42:47;;;;;;;40.53;17.00;;;;;;;;;;6245156;23;20075;-82
2022/03/19 04:45:13;;;;;;;34.70;16.20;;;;;;;;;;6246505;23;20040;-84
2022/03/19 04:47:39;;;;;;;39.08;16.70;;;;;;;;;;6246296;23;20456;-84
2022/03/19 04:50:06;;;;;;;37.92;16.58;;;;;;;;;;6219838;23;20016;-83
2022/03/19 04:52:32;;;;;;;38.72;17.25;;;;;;;;;;6247246;23;20459;-84
2022/03/19 04:55:00;;;;;;;42.30;17.33;;;;;;;;;;6244558;23;20012;-84
2022/03/19 04:57:27;;;;;;;33.05;16.95;;;;;;;;;;6245952;23;20460;-84
2022/03/19 04:59:54;;;;;;;34.60;17.42;;;;;;;;;;6192430;23;20027;-83
2022/03/19 05:02:23;;;;;;;38.08;18.17;;;;;;;;;;6219235;23;20103;-84
2022/03/19 05:04:50;;;;;;;36.03;18.27;;;;;;;;;;6246308;22;20046;-83
2022/03/19 05:07:17;;;;;;;30.60;17.05;;;;;;;;;;6244801;23;20035;-83
2022/03/19 05:12:29;;;;;;;42.53;19.75;;;;;;;;;;6243819;23;20490;-84
2022/03/19 05:14:55;;;;;;;41.08;18.70;;;;;;;;;;6220241;23;20035;-83
2022/03/19 05:17:21;;;;;;;42.03;17.85;;;;;;;;;;6218248;23;20024;-83
2022/03/19 05:19:47;;;;;;;36.58;19.95;;;;;;;;;;6245467;23;20020;-84
2022/03/19 05:22:13;;;;;;;37.45;19.65;;;;;;;;;;6245732;23;20020;-83
2022/03/19 05:24:40;;;;;;;42.78;18.08;;;;;;;;;;6245950;23;20016;-84
2022/03/19 05:27:06;;;;;;;31.92;17.52;;;;;;;;;;6245773;23;20020;-84
2022/03/19 05:29:32;;;;;;;36.20;18.58;;;;;;;;;;6245256;23;20395;-83
2022/03/19 05:31:59;;;;;;;39.38;18.48;;;;;;;;;;6246000;23;20055;-83
2022/03/19 05:34:31;;;;;;;37.05;18.10;;;;;;;;;;6217325;23;20460;-84
2022/03/19 05:37:00;;;;;;;39.22;17.95;;;;;;;;;;6218191;23;20048;-83
2022/03/19 05:39:30;;;;;;;42.95;17.83;;;;;;;;;;6216855;23;20101;-84
2022/03/19 05:41:56;;;;;;;32.72;17.33;;;;;;;;;;6245824;23;20095;-86
2022/03/19 05:44:23;;;;;;;41.15;18.02;;;;;;;;;;6194318;23;20026;-84
2022/03/19 05:46:49;;;;;;;52.58;19.27;;;;;;;;;;6244640;23;20016;-83
2022/03/19 05:49:16;;;;;;;45.22;20.10;;;;;;;;;;6249699;23;20077;-83
2022/03/19 05:51:42;;;;;;;41.38;20.15;;;;;;;;;;6191163;23;20023;-83
2022/03/19 05:54:09;;;;;;;34.25;17.90;;;;;;;;;;6247336;23;20027;-82
2022/03/19 05:56:35;;;;;;;39.83;20.17;;;;;;;;;;6218705;23;20413;-85
2022/03/19 05:59:01;;;;;;;37.75;19.40;;;;;;;;;;6218718;23;20020;-83
2022/03/19 06:01:27;;;;;;;37.42;19.35;;;;;;;;;;6245560;23;20090;-84
2022/03/19 06:03:57;;;;;;;39.15;17.13;;;;;;;;;;6192704;23;20151;-84
2022/03/19 06:06:26;;;;;;;31.50;17.48;;;;;;;;;;6219238;23;20035;-83
2022/03/19 06:08:52;;;;;;;34.70;17.55;;;;;;;;;;6244202;23;20044;-83
2022/03/19 06:11:22;;;;;;;38.75;17.15;;;;;;;;;;6246531;23;20020;-83
2022/03/19 06:13:48;;;;;;;39.83;17.67;;;;;;;;;;6243577;23;20050;-84
2022/03/19 06:16:14;;;;;;;34.65;16.10;;;;;;;;;;6246075;23;20416;-83
2022/03/19 06:18:45;;;;;;;39.88;15.82;;;;;;;;;;6244112;23;20082;-83
2022/03/19 06:21:12;;;;;;;27.48;14.68;;;;;;;;;;6245293;23;20026;-83
2022/03/19 06:23:38;;;;;;;28.50;15.57;;;;;;;;;;6247042;23;20024;-81
2022/03/19 06:26:04;;;;;;;36.67;15.35;;;;;;;;;;6216436;23;20050;-83
2022/03/19 06:28:30;;;;;;;29.58;15.00;;;;;;;;;;6193479;23;20030;-83
2022/03/19 06:30:56;;;;;;;28.88;15.73;;;;;;;;;;6216079;23;20026;-83
2022/03/19 06:33:22;;;;;;;35.72;14.50;;;;;;;;;;6221832;23;20022;-85
2022/03/19 06:38:36;;;;;;;30.70;12.35;;;;;;;;;;6198142;23;20077;-83
2022/03/19 06:41:02;;;;;;;29.13;11.80;;;;;;;;;;6219182;23;20024;-84
2022/03/19 06:43:28;;;;;;;27.77;12.00;;;;;;;;;;6218704;23;20020;-84
2022/03/19 06:45:57;;;;;;;32.88;13.40;;;;;;;;;;6246921;23;20095;-82
2022/03/19 06:48:23;;;;;;;27.80;13.00;;;;;;;;;;6192451;23;20020;-85
2022/03/19 06:50:50;;;;;;;37.88;13.20;;;;;;;;;;6171000;23;20344;-84
2022/03/19 06:53:16;;;;;;;34.38;13.27;;;;;;;;;;6245862;23;20020;-84
2022/03/19 06:55:42;;;;;;;32.40;13.00;;;;;;;;;;6248746;23;20016;-83
2022/03/19 06:58:14;;;;;;;29.15;12.20;;;;;;;;;;6247064;23;20047;-86
2022/03/19 07:00:41;;;;;;;29.27;13.23;;;;;;;;;;6248399;23;20027;-83
2022/03/19 07:03:07;;;;;;;34.92;13.00;;;;;;;;;;6200534;23;20433;-85
2022/03/19 07:05:34;;;;;;;27.45;11.85;;;;;;;;;;6246392;23;20020;-86
2022/03/19 07:08:01;;;;;;;35.88;12.32;;;;;;;;;;6194911;23;20020;-85
2022/03/19 07:10:27;;;;;;;27.30;11.57;;;;;;;;;;6245572;23;20154;-84
2022/03/19 07:12:54;;;;;;;27.80;11.38;;;;;;;;;;6247468;23;20016;-87
2022/03/19 07:15:24;;;;;;;26.45;10.95;;;;;;;;;;6245269;23;20064;-86
2022/03/19 07:17:55;;;;;;;29.20;11.73;;;;;;;;;;6247379;23;20016;-88
2022/03/19 07:20:21;;;;;;;24.13;10.32;;;;;;;;;;6243408;23;20545;-87
2022/03/19 07:22:58;;;;;;;22.20;10.93;;;;;;;;;;6197417;23;20075;-89
2022/03/19 07:25:27;;;;;;;25.00;10.48;;;;;;;;;;6194971;23;20033;-90
2022/03/19 07:37:01;;;;;;;22.98;9.15;;;;;;;;;;6182950;23;1110024;-92
2022/03/19 07:39:28;;;;;;;21.45;9.18;;;;;;;;;;6202762;23;20029;-93
2022/03/19 07:41:56;;;;;;;25.50;8.75;;;;;;;;;;6230843;23;20017;-90
2022/03/19 07:44:22;;;;;;;27.17;8.65;;;;;;;;;;6231536;23;20084;-91
2022/03/19 07:46:48;;;;;;;21.05;8.15;;;;;;;;;;6202435;23;20020;-90
2022/03/19 07:49:14;;;;;;;18.90;7.28;;;;;;;;;;6204009;23;20070;-90
2022/03/19 07:51:41;;;;;;;26.00;8.48;;;;;;;;;;6232383;23;20017;-91
2022/03/19 07:54:15;;;;;;;19.55;7.38;;;;;;;;;;6203891;23;20445;-87
2022/03/19 07:56:41;;;;;;;33.72;7.82;;;;;;;;;;6226956;23;20016;-91
2022/03/19 07:59:07;;;;;;;20.38;7.95;;;;;;;;;;6231378;23;20021;-88
2022/03/19 08:05:21;;;;;;;29.48;7.53;;;;;;;;;;6237207;23;20035;-95
2022/03/19 08:07:54;;;;;;;22.27;7.20;;;;;;;;;;6230435;23;20024;-85
2022/03/19 08:10:20;;;;;;;27.77;7.67;;;;;;;;;;6229055;23;20028;-86
2022/03/19 08:12:47;;;;;;;18.65;6.55;;;;;;;;;;6221963;23;20080;-86
2022/03/19 08:15:13;;;;;;;25.73;7.18;;;;;;;;;;6171919;23;20040;-88
2022/03/19 08:17:41;;;;;;;20.70;6.95;;;;;;;;;;6198658;23;20025;-91
2022/03/19 08:20:07;;;;;;;18.38;7.03;;;;;;;;;;6225014;23;20048;-87
2022/03/19 08:22:34;;;;;;;18.63;6.47;;;;;;;;;;6225109;23;20028;-87
2022/03/19 08:25:01;;;;;;;16.42;6.07;;;;;;;;;;6222103;23;20016;-88
2022/03/19 08:27:28;;;;;;;21.20;6.07;;;;;;;;;;6203482;23;20032;-87
2022/03/19 08:36:14;;;;;;;11.80;5.55;;;;;;;;;;6198924;23;20023;-91
2022/03/19 08:41:27;;;;;;;19.23;5.80;;;;;;;;;;6227914;23;20020;-95
2022/03/19 08:43:55;;;;;;;18.10;5.50;;;;;;;;;;6174466;23;20017;-90
2022/03/19 08:46:21;;;;;;;21.52;5.35;;;;;;;;;;6177602;23;20020;-89
2022/03/19 08:48:47;;;;;;;22.55;6.35;;;;;;;;;;6200202;23;20047;-90
2022/03/19 08:54:09;;;;;;;;;;;;;;;;;;;;;
2022/03/19 09:00:17;;;;;;;20.73;5.53;;;;;;;;;;6169110;23;20074;-89
2022/03/19 09:02:45;;;;;;;18.48;4.82;;;;;;;;;;6196853;23;20017;-89
2022/03/19 09:05:14;;;;;;;17.58;5.00;;;;;;;;;;6173854;23;20020;-92
2022/03/19 09:07:56;;;;;;;17.83;4.72;;;;;;;;;;6198193;23;20024;-91
2022/03/19 09:10:23;;;;;;;19.75;5.10;;;;;;;;;;6171981;23;20121;-88
2022/03/19 09:12:49;;;;;;;17.85;3.83;;;;;;;;;;6223961;23;20051;-87
2022/03/19 09:15:37;;;;;;;15.38;3.65;;;;;;;;;;6201133;23;20024;-93
2022/03/19 09:18:16;;;;;;;16.50;4.18;;;;;;;;;;6223061;23;20019;-94
2022/03/19 09:20:42;;;;;;;18.15;3.53;;;;;;;;;;6193096;23;20024;-86
2022/03/19 09:23:09;;;;;;;16.13;4.32;;;;;;;;;;6191382;23;20775;-88
2022/03/19 09:25:36;;;;;;;16.95;3.80;;;;;;;;;;6199536;23;20021;-87
2022/03/19 09:28:17;;;;;;;13.23;3.38;;;;;;;;;;6200601;23;20021;-89
2022/03/19 09:30:51;;;;;;;14.40;3.33;;;;;;;;;;6227772;23;20082;-88
2022/03/19 09:42:46;;;;;;;13.38;3.20;;;;;;;;;;6248015;23;20014;-89
2022/03/19 09:45:13;;;;;;;16.77;3.00;;;;;;;;;;6224818;23;20032;-93
2022/03/19 09:47:52;;;;;;;13.35;3.45;;;;;;;;;;6201300;23;20027;-88
2022/03/19 09:50:27;;;;;;;18.35;3.92;;;;;;;;;;6224519;23;20023;-92
2022/03/19 09:53:00;;;;;;;12.63;2.92;;;;;;;;;;6252186;23;20086;-95
2022/03/19 09:55:26;;;;;;;11.75;3.25;;;;;;;;;;6175284;23;20012;-87
2022/03/19 09:57:53;;;;;;;14.60;3.00;;;;;;;;;;6251701;23;20031;-87
2022/03/19 10:00:24;;;;;;;10.90;3.20;;;;;;;;;;6252313;23;20012;-87
2022/03/19 10:02:56;;;;;;;12.40;3.17;;;;;;;;;;6229715;23;20020;-88
2022/03/19 10:12:19;;;;;;;14.70;2.58;;;;;;;;;;6254018;23;20086;-86
2022/03/19 10:14:47;;;;;;;12.20;3.25;;;;;;;;;;6224155;23;20082;-86
2022/03/19 10:17:24;;;;;;;14.27;3.08;;;;;;;;;;6221298;23;20050;-87
2022/03/19 10:19:51;;;;;;;14.25;2.97;;;;;;;;;;6246361;23;20013;-86
2022/03/19 10:22:24;;;;;;;11.82;4.20;;;;;;;;;;6171563;23;20012;-86
2022/03/19 10:24:55;;;;;;;10.98;2.53;;;;;;;;;;6220619;23;20034;-86
2022/03/19 10:27:21;;;;;;;10.10;2.78;;;;;;;;;;6221291;23;20020;-86
2022/03/19 10:30:06;;;;;;;8.65;2.70;;;;;;;;;;6220765;23;20020;-92
2022/03/19 10:32:48;;;;;;;9.50;2.90;;;;;;;;;;6248198;23;20017;-87
2022/03/19 10:35:25;;;;;;;10.63;2.72;;;;;;;;;;6247471;23;20099;-86
2022/03/19 10:37:51;;;;;;;7.80;2.22;;;;;;;;;;6222446;23;20474;-86
2022/03/19 10:40:17;;;;;;;9.75;2.45;;;;;;;;;;6248482;23;20022;-87
2022/03/19 10:42:45;;;;;;;10.32;2.60;;;;;;;;;;6221792;23;20362;-85
2022/03/19 10:45:12;;;;;;;4.55;1.70;;;;;;;;;;6248705;23;20116;-87
2022/03/19 10:47:42;;;;;;;5.80;1.58;;;;;;;;;;6220294;23;20015;-87
2022/03/19 10:50:08;;;;;;;5.03;1.63;;;;;;;;;;6247156;23;20020;-88
2022/03/19 10:52:38;;;;;;;8.48;2.33;;;;;;;;;;6221005;23;20074;-90
2022/03/19 10:55:07;;;;;;;13.80;2.25;;;;;;;;;;6248656;23;20016;-86
2022/03/19 10:57:34;;;;;;;11.82;3.08;;;;;;;;;;6246750;23;20059;-88
2022/03/19 11:00:00;;;;;;;12.52;3.10;;;;;;;;;;6219742;23;20052;-86
2022/03/19 11:02:30;;;;;;;7.45;2.35;;;;;;;;;;6245245;23;20510;-87
2022/03/19 11:04:58;;;;;;;7.85;2.45;;;;;;;;;;6245866;23;20445;-86
2022/03/19 11:07:25;;;;;;;5.85;2.20;;;;;;;;;;6246145;23;20107;-85
2022/03/19 11:09:56;;;;;;;7.10;2.00;;;;;;;;;;6242364;23;20107;-87
2022/03/19 11:12:33;;;;;;;9.15;2.72;;;;;;;;;;6215316;23;20028;-86
2022/03/19 11:15:05;;;;;;;6.65;2.28;;;;;;;;;;6244214;23;20020;-87
2022/03/19 11:17:36;;;;;;;11.73;2.35;;;;;;;;;;6216954;23;20514;-89
2022/03/19 11:20:13;;;;;;;5.93;2.05;;;;;;;;;;6242378;23;20024;-87
2022/03/19 11:22:47;;;;;;;6.05;1.80;;;;;;;;;;6246689;23;20418;-88
2022/03/19 11:25:30;;;;;;;7.82;1.88;;;;;;;;;;6244642;23;20077;-89
2022/03/19 11:28:33;;;;;;;5.57;1.67;;;;;;;;;;6219421;23;20020;-88
2022/03/19 11:31:09;;;;;;;6.00;1.83;;;;;;;;;;6244651;23;20024;-89
2022/03/19 11:33:38;;;;;;;3.65;1.33;;;;;;;;;;6244868;23;20043;-89
2022/03/19 11:36:11;;;;;;;5.30;1.42;;;;;;;;;;6169887;23;20016;-88
2022/03/19 11:39:00;;;;;;;6.10;1.55;;;;;;;;;;6245593;23;20043;-86
2022/03/19 11:45:10;;;;;;;3.80;1.40;;;;;;;;;;6252320;23;20149;-86
2022/03/19 11:47:38;;;;;;;5.25;1.70;;;;;;;;;;6226679;23;20361;-86
2022/03/19 11:50:17;;;;;;;5.18;1.40;;;;;;;;;;6230278;23;20016;-89
2022/03/19 11:56:02;;;;;;;4.97;1.50;;;;;;;;;;6240450;22;20027;-87
2022/03/19 11:58:28;;;;;;;6.45;1.80;;;;;;;;;;6229032;23;20496;-86
2022/03/19 12:01:00;;;;;;;5.78;2.10;;;;;;;;;;6227562;23;20066;-86
2022/03/19 12:03:26;;;;;;;4.07;1.48;;;;;;;;;;6201513;23;20322;-86
2022/03/19 12:08:48;;;;;;;7.15;1.95;;;;;;;;;;6224300;22;20036;-88
2022/03/19 12:11:15;;;;;;;3.90;1.40;;;;;;;;;;6171588;23;20029;-86
2022/03/19 12:13:42;;;;;;;6.97;1.83;;;;;;;;;;6174463;23;20024;-86
2022/03/19 12:16:12;;;;;;;4.95;1.83;;;;;;;;;;6173706;23;20035;-89
2022/03/19 12:25:40;;;;;;;6.95;1.88;;;;;;;;;;6226003;23;20070;-85
2022/03/19 12:28:36;;;;;;;8.32;1.50;;;15.20;99.90;;;;;;6226187;23;20162;-86
2022/03/19 12:33:57;;;;;;;10.20;2.28;;;;;;;;;;6249425;22;20066;-86
2022/03/19 12:36:23;;;;;;;4.82;1.58;;;;;;;;;;6198570;22;20016;-86
2022/03/19 12:39:14;;;;;;;8.35;2.53;;;;;;;;;;6199763;23;20020;-87
2022/03/19 12:44:59;;;;;;;6.50;2.20;;;;;;;;;;6253020;22;20103;-86
2022/03/19 12:47:25;;;;;;;32.20;2.97;;;;;;;;;;6223897;22;20016;-88
2022/03/19 12:53:14;;;;;;;7.85;2.17;;;;;;;;;;6255867;22;20035;-86
2022/03/19 12:58:45;;;;;;;;;;;;;;;;;;6229280;23;20091;-86
2022/03/19 13:01:12;;;;;;;8.57;1.98;;;;;;;;;;6204203;23;19919;-87
2022/03/19 13:03:38;;;;;;;12.60;2.42;;;;;;;;;;6201914;23;20040;-90
2022/03/19 13:06:04;;;;;;;8.20;2.08;;;;;;;;;;6229001;23;20031;-86
2022/03/19 13:08:54;;;;;;;11.90;2.25;;;;;;;;;;6203239;23;20091;-87
2022/03/19 13:11:20;;;;;;;11.80;2.30;;;;;;;;;;6230451;23;20024;-86
2022/03/19 13:13:47;;;;;;;169.82;9.20;;;;;;;;;;6254144;23;20044;-86
2022/03/19 13:16:25;;;;;;;4.95;2.03;;;;;;;;;;6256949;23;20023;-87
2022/03/19 13:18:57;;;;;;;5.13;1.70;;;;;;;;;;6203620;23;20020;-87
2022/03/19 13:24:35;;;;;;;6.40;1.80;;;;;;;;;;6283444;22;20355;-87
2022/03/19 13:27:02;;;;;;;9.15;2.13;;;;;;;;;;6231771;22;20020;-89
2022/03/19 13:29:33;;;;;;;9.30;2.35;;;;;;;;;;6208848;22;20161;-86
2022/03/19 13:32:01;;;;;;;8.48;2.13;;;;;;;;;;6237009;22;20019;-88
2022/03/19 13:34:54;;;;;;;8.23;2.58;;;;;;;;;;6221356;23;20084;-85
2022/03/19 13:37:21;;;;;;;9.60;2.25;;;;;;;;;;6231372;23;20043;-90
2022/03/19 13:40:07;;;;;;;6.60;1.80;;;;;;;;;;6236757;23;20024;-88
2022/03/19 13:42:34;;;;;;;6.00;2.20;;;;;;;;;;6200570;23;20024;-89
2022/03/19 13:45:02;;;;;;;6.63;1.77;;;;;;;;;;6223676;23;20023;-89
2022/03/19 13:47:34;;;;;;;6.80;2.30;;;;;;;;;;6223591;23;20048;-89
2022/03/19 13:50:01;;;;;;;7.70;2.60;;;;;;;;;;6172460;23;20047;-88
2022/03/19 13:52:44;;;;;;;12.70;2.55;;;;;;;;;;6225367;23;20024;-87
2022/03/19 13:55:13;;;;;;;11.85;2.10;;;;;;;;;;6223231;23;20020;-88
2022/03/19 13:57:43;;;;;;;8.20;2.40;;;;;;;;;;6224858;23;20021;-89
2022/03/19 14:00:18;;;;;;;8.25;2.30;;;;;;;;;;6197580;23;20048;-90
2022/03/19 14:02:52;;;;;;;7.35;2.30;;;;;;;;;;6223880;23;20457;-88
2022/03/19 14:05:21;;;;;;;8.55;2.30;;;;;;;;;;6224280;23;20021;-88
2022/03/19 14:07:47;;;;;;;8.43;2.90;;;;;;;;;;6222861;23;20092;-87
2022/03/19 14:13:08;;;;;;;8.18;2.38;;;;;;;;;;6230756;22;20035;-90
2022/03/19 14:15:37;;;;;;;7.85;2.75;;;;;;;;;;6224757;23;20121;-88
2022/03/19 14:18:04;;;;;;;10.13;2.90;;;;;;;;;;6202821;23;20024;-89
2022/03/19 14:20:30;;;;;;;10.25;3.00;;;;;;;;;;6252283;23;20016;-89
2022/03/19 14:22:57;;;;;;;15.05;3.92;;;;;;;;;;6227009;23;20356;-89
2022/03/19 14:25:23;;;;;;;8.80;2.80;;;;;;;;;;6228455;23;20107;-89
2022/03/19 14:28:08;;;;;;;11.98;2.70;;;;;;;;;;6225831;23;20331;-86
2022/03/19 14:30:35;;;;;;;9.23;2.40;;;;;;;;;;6201620;23;20013;-87
2022/03/19 14:33:01;;;;;;;12.25;2.75;;;;;;;;;;6198424;23;20020;-88
2022/03/19 14:35:47;;;;;;;8.38;3.05;;;;;;;;;;6201516;23;20448;-88
2022/03/19 14:38:14;;;;;;;12.20;3.10;;;;;;;;;;6226368;23;20024;-89
2022/03/19 14:40:41;;;;;;;8.95;2.50;;;;;;;;;;6200469;23;20020;-89
2022/03/19 14:43:07;;;;;;;11.95;3.00;;;;;;;;;;6201819;22;20020;-88
2022/03/19 14:45:33;;;;;;;7.53;3.25;;;;;;;;;;6203447;23;20024;-92
2022/03/19 14:50:29;;;;;;;8.85;2.72;;;;;;;;;;6252696;22;20034;-90
2022/03/19 14:52:56;;;;;;;7.38;3.13;;;;;;;;;;6200337;23;20055;-89
2022/03/19 14:55:33;;;;;;;5.78;2.53;;;;;;;;;;6200055;23;20023;-86
2022/03/19 14:57:59;;;;;;;11.05;2.72;;;;;;;;;;6251090;23;20020;-87
2022/03/19 15:00:27;;;;;;;7.85;3.67;;;;;;;;;;6199978;23;20023;-88
2022/03/19 15:02:54;;;;;;;4.45;2.55;;;;;;;;;;6252159;23;20020;-89
2022/03/19 15:05:20;;;;;;;8.23;3.08;;;;;;;;;;6224259;23;20016;-88
2022/03/19 15:14:45;;;;;;;6.10;2.95;;;;;;;;;;6244766;22;20028;-87
2022/03/19 15:17:11;;;;;;;6.93;2.78;;;;;;;;;;6176600;23;20043;-86
2022/03/19 15:22:33;;;;;;;17.67;4.00;;;;;;;;;;6257055;22;20099;-86
2022/03/19 15:24:59;;;;;;;10.18;2.80;;;;;;;;;;6233614;23;20020;-90
2022/03/19 15:27:25;;;;;;;5.10;2.28;;;;;;;;;;6253086;23;20017;-85
2022/03/19 15:29:52;;;;;;;8.95;2.83;;;;;;;;;;6203256;23;20024;-88
2022/03/19 15:32:33;;;;;;;4.80;2.60;;;;;;;;;;6198782;23;20020;-90
2022/03/19 15:35:00;;;;;;;8.80;3.08;;;;;;;;;;6200671;23;20080;-88
2022/03/19 15:37:26;;;;;;;7.85;2.85;;;;;;;;;;6224521;23;20056;-87
2022/03/19 15:39:52;;;;;;;6.00;3.20;;;;;;;;;;6201215;23;20101;-86
2022/03/19 15:42:26;;;;;;;9.48;2.72;;;;;;;;;;6199043;23;20016;-87
2022/03/19 15:44:52;;;;;;;6.97;2.60;;;;;;;;;;6202206;23;20031;-86
2022/03/19 15:47:20;;;;;;;8.55;2.53;;;;;;;;;;6198839;23;20441;-88
2022/03/19 15:49:46;;;;;;;8.05;2.92;;;;;;;;;;6201413;23;20020;-89
2022/03/19 15:52:12;;;;;;;5.03;2.33;;;;;;;;;;6253594;23;20023;-87
2022/03/19 15:54:39;;;;;;;17.80;5.03;;;;;;;;;;6204401;23;20028;-86
2022/03/19 15:57:05;;;;;;;9.20;2.63;;;;;;;;;;6201454;23;20080;-87
2022/03/19 16:02:49;;;;;;;5.88;2.63;;;;;;;;;;6228210;23;20020;-88
2022/03/19 16:05:18;;;;;;;5.53;2.38;;;;;;;;;;6204366;23;20027;-88
2022/03/19 16:07:44;;;;;;;7.13;2.67;;;;;;;;;;6202846;23;20031;-88
2022/03/19 16:10:11;;;;;;;6.95;2.33;;;;;;;;;;6229191;23;20052;-91
2022/03/19 16:12:41;;;;;;;8.02;2.88;;;;;;;;;;6186343;23;20031;-88
2022/03/19 16:15:11;;;;;;;4.57;2.10;;;;;;;;;;6200518;23;20031;-88
2022/03/19 16:17:49;;;;;;;6.43;2.37;;;;;;;;;;6204354;23;20020;-87
2022/03/19 16:20:25;;;;;;;5.43;2.50;;;;;;;;;;6204654;23;20275;-89
2022/03/19 16:22:52;;;;;;;4.55;2.17;;;;;;;;;;6203086;23;20070;-88
2022/03/19 16:25:24;;;;;;;8.75;2.72;;;;;;;;;;6201019;23;20039;-87